sensor_id;sensor_type;location;lat;lon;timestamp;pressure;altitude;pressure_sealevel;temperature;humidity
9774;BME280;4926;42.670;23.316;2023-04-10T00:00:09;94649.31;;;7.63;97.05
9774;BME280;4926;42.670;23.316;2023-04-10T00:02:37;94648.53;;;7.62;95.40
9774;BME280;4926;42.670;23.316;2023-04-10T00:05:04;94647.44;;;7.78;93.74
9774;BME280;4926;42.670;23.316;2023-04-10T00:07:35;94643.22;;;7.72;89.79
9774;BME280;4926;42.670;23.316;2023-04-10T00:10:02;94642.69;;;7.60;88.58
9774;BME280;4926;42.670;23.316;2023-04-10T00:12:29;94646.41;;;7.64;87.58
9774;BME280;4926;42.670;23.316;2023-04-10T00:14:56;94643.22;;;7.72;86.79
9774;BME280;4926;42.670;23.316;2023-04-10T00:17:26;94640.31;;;7.74;85.21
9774;BME280;4926;42.670;23.316;2023-04-10T00:19:53;94632.06;;;7.75;83.90
9774;BME280;4926;42.670;23.316;2023-04-10T00:22:20;94631.53;;;7.78;83.32
9774;BME280;4926;42.670;23.316;2023-04-10T00:24:48;94627.84;;;7.79;81.69
9774;BME280;4926;42.670;23.316;2023-04-10T00:27:15;94632.06;;;7.80;80.66
9774;BME280;4926;42.670;23.316;2023-04-10T00:29:41;94618.31;;;7.83;78.14
9774;BME280;4926;42.670;23.316;2023-04-10T00:32:08;94609.25;;;7.94;76.77
9774;BME280;4926;42.670;23.316;2023-04-10T00:34:35;94609.28;;;7.89;74.88
9774;BME280;4926;42.670;23.316;2023-04-10T00:37:04;94613.25;;;7.87;75.21
9774;BME280;4926;42.670;23.316;2023-04-10T00:39:31;94607.94;;;7.92;74.24
9774;BME280;4926;42.670;23.316;2023-04-10T00:42:00;94601.31;;;7.89;73.58
9774;BME280;4926;42.670;23.316;2023-04-10T00:44:32;94587.53;;;7.87;72.38
9774;BME280;4926;42.670;23.316;2023-04-10T00:47:01;94587.00;;;8.01;70.84
9774;BME280;4926;42.670;23.316;2023-04-10T00:49:31;94594.97;;;7.96;69.99
9774;BME280;4926;42.670;23.316;2023-04-10T00:51:58;94595.97;;;8.10;68.79
9774;BME280;4926;42.670;23.316;2023-04-10T00:54:25;94590.97;;;7.93;68.16
9774;BME280;4926;42.670;23.316;2023-04-10T00:56:52;94590.97;;;7.93;68.89
9774;BME280;4926;42.670;23.316;2023-04-10T00:59:20;94599.41;;;8.05;69.60
9774;BME280;4926;42.670;23.316;2023-04-10T01:01:56;94599.72;;;7.99;70.88
9774;BME280;4926;42.670;23.316;2023-04-10T01:04:24;94601.28;;;8.10;70.90
9774;BME280;4926;42.670;23.316;2023-04-10T01:06:57;94601.25;;;8.20;71.32
9774;BME280;4926;42.670;23.316;2023-04-10T01:09:32;94599.66;;;8.19;72.14
9774;BME280;4926;42.670;23.316;2023-04-10T01:12:10;94606.78;;;8.23;74.80
9774;BME280;4926;42.670;23.316;2023-04-10T01:14:49;94612.09;;;8.23;77.10
9774;BME280;4926;42.670;23.316;2023-04-10T01:17:21;94625.41;;;8.03;81.66
9774;BME280;4926;42.670;23.316;2023-04-10T01:20:03;94626.75;;;7.96;85.23
9774;BME280;4926;42.670;23.316;2023-04-10T01:22:34;94630.47;;;7.84;86.00
9774;BME280;4926;42.670;23.316;2023-04-10T01:25:18;94639.75;;;7.97;87.18
9774;BME280;4926;42.670;23.316;2023-04-10T01:28:04;94626.00;;;7.85;87.81
9774;BME280;4926;42.670;23.316;2023-04-10T01:30:36;94627.84;;;7.54;89.99
9774;BME280;4926;42.670;23.316;2023-04-10T01:33:04;94622.31;;;7.31;92.35
9774;BME280;4926;42.670;23.316;2023-04-10T01:35:37;94630.75;;;7.28;93.73
9774;BME280;4926;42.670;23.316;2023-04-10T01:38:05;94624.69;;;7.17;94.60
9774;BME280;4926;42.670;23.316;2023-04-10T01:40:33;94623.63;;;7.13;94.88
9774;BME280;4926;42.670;23.316;2023-04-10T01:43:06;94603.53;;;7.17;93.15
9774;BME280;4926;42.670;23.316;2023-04-10T01:45:38;94618.34;;;7.18;92.41
9774;BME280;4926;42.670;23.316;2023-04-10T01:48:08;94610.94;;;7.10;89.31
9774;BME280;4926;42.670;23.316;2023-04-10T01:50:39;94605.59;;;7.05;88.06
9774;BME280;4926;42.670;23.316;2023-04-10T01:53:09;94602.19;;;7.10;88.09
9774;BME280;4926;42.670;23.316;2023-04-10T01:55:36;94608.28;;;7.20;87.03
9774;BME280;4926;42.670;23.316;2023-04-10T01:58:03;94617.78;;;7.26;86.36
9774;BME280;4926;42.670;23.316;2023-04-10T02:00:38;94615.41;;;7.25;86.87
9774;BME280;4926;42.670;23.316;2023-04-10T02:03:12;94612.75;;;7.30;86.61
9774;BME280;4926;42.670;23.316;2023-04-10T02:05:47;94606.69;;;7.39;86.50
9774;BME280;4926;42.670;23.316;2023-04-10T02:08:25;94609.34;;;7.44;85.93
9774;BME280;4926;42.670;23.316;2023-04-10T02:11:01;94604.03;;;7.54;85.75
9774;BME280;4926;42.670;23.316;2023-04-10T02:13:31;94602.72;;;7.57;85.54
9774;BME280;4926;42.670;23.316;2023-04-10T02:16:03;94602.97;;;7.60;85.97
9774;BME280;4926;42.670;23.316;2023-04-10T02:18:38;94588.13;;;7.54;85.29
9774;BME280;4926;42.670;23.316;2023-04-10T02:21:06;94595.03;;;7.35;85.86
9774;BME280;4926;42.670;23.316;2023-04-10T02:23:34;94597.16;;;7.18;86.47
9774;BME280;4926;42.670;23.316;2023-04-10T02:26:05;94586.84;;;7.07;86.66
9774;BME280;4926;42.670;23.316;2023-04-10T02:28:36;94577.03;;;7.07;86.17
9774;BME280;4926;42.670;23.316;2023-04-10T02:31:06;94583.91;;;7.08;86.86
9774;BME280;4926;42.670;23.316;2023-04-10T02:33:33;94585.75;;;7.08;86.83
9774;BME280;4926;42.670;23.316;2023-04-10T02:36:00;94572.25;;;7.04;86.21
9774;BME280;4926;42.670;23.316;2023-04-10T02:38:27;94575.97;;;7.03;86.21
9774;BME280;4926;42.670;23.316;2023-04-10T02:40:55;94556.38;;;7.04;86.92
9774;BME280;4926;42.670;23.316;2023-04-10T02:43:22;94570.16;;;7.16;85.91
9774;BME280;4926;42.670;23.316;2023-04-10T02:45:48;94568.28;;;7.37;85.72
9774;BME280;4926;42.670;23.316;2023-04-10T02:48:22;94549.22;;;7.50;85.42
9774;BME280;4926;42.670;23.316;2023-04-10T02:50:48;94556.31;;;7.74;84.37
9774;BME280;4926;42.670;23.316;2023-04-10T02:53:15;94557.84;;;7.85;83.34
9774;BME280;4926;42.670;23.316;2023-04-10T02:55:42;94556.78;;;7.97;81.98
9774;BME280;4926;42.670;23.316;2023-04-10T02:58:09;94548.81;;;7.97;81.41
9774;BME280;4926;42.670;23.316;2023-04-10T03:00:36;94548.81;;;8.02;81.67
9774;BME280;4926;42.670;23.316;2023-04-10T03:03:02;94550.09;;;8.09;81.33
9774;BME280;4926;42.670;23.316;2023-04-10T03:05:31;94542.16;;;8.09;81.53
9774;BME280;4926;42.670;23.316;2023-04-10T03:07:57;94548.75;;;8.17;80.84
9774;BME280;4926;42.670;23.316;2023-04-10T03:10:24;94557.00;;;8.15;81.11
9774;BME280;4926;42.670;23.316;2023-04-10T03:12:51;94533.97;;;8.01;81.42
9774;BME280;4926;42.670;23.316;2023-04-10T03:15:18;94558.81;;;8.20;80.99
9774;BME280;4926;42.670;23.316;2023-04-10T03:17:45;94556.69;;;8.22;80.92
9774;BME280;4926;42.670;23.316;2023-04-10T03:20:12;94550.31;;;8.23;80.73
9774;BME280;4926;42.670;23.316;2023-04-10T03:22:41;94547.22;;;8.06;80.89
9774;BME280;4926;42.670;23.316;2023-04-10T03:25:08;94563.66;;;8.03;81.46
9774;BME280;4926;42.670;23.316;2023-04-10T03:27:35;94562.88;;;7.97;82.00
9774;BME280;4926;42.670;23.316;2023-04-10T03:30:02;94559.16;;;7.93;82.44
9774;BME280;4926;42.670;23.316;2023-04-10T03:32:29;94569.78;;;7.93;82.50
9774;BME280;4926;42.670;23.316;2023-04-10T03:34:57;94554.16;;;7.86;82.37
9774;BME280;4926;42.670;23.316;2023-04-10T03:37:23;94562.91;;;7.92;82.04
9774;BME280;4926;42.670;23.316;2023-04-10T03:39:53;94556.25;;;7.89;81.92
9774;BME280;4926;42.670;23.316;2023-04-10T03:42:21;94564.22;;;7.89;82.10
9774;BME280;4926;42.670;23.316;2023-04-10T03:44:48;94573.22;;;7.93;82.29
9774;BME280;4926;42.670;23.316;2023-04-10T03:47:14;94579.31;;;7.99;82.93
9774;BME280;4926;42.670;23.316;2023-04-10T03:49:41;94584.88;;;7.92;85.67
9774;BME280;4926;42.670;23.316;2023-04-10T03:52:08;94582.81;;;7.59;93.65
9774;BME280;4926;42.670;23.316;2023-04-10T03:54:36;94596.09;;;7.49;98.39
9774;BME280;4926;42.670;23.316;2023-04-10T03:57:07;94580.22;;;7.39;100.00
9774;BME280;4926;42.670;23.316;2023-04-10T03:59:34;94579.41;;;7.39;100.00
9774;BME280;4926;42.670;23.316;2023-04-10T04:02:04;94570.69;;;7.23;100.00
9774;BME280;4926;42.670;23.316;2023-04-10T04:04:33;94582.34;;;7.17;100.00
9774;BME280;4926;42.670;23.316;2023-04-10T04:07:02;94577.56;;;7.04;100.00
9774;BME280;4926;42.670;23.316;2023-04-10T04:09:28;94578.09;;;7.01;100.00
9774;BME280;4926;42.670;23.316;2023-04-10T04:11:57;94577.28;;;7.01;100.00
9774;BME280;4926;42.670;23.316;2023-04-10T04:14:25;94583.91;;;7.08;100.00
9774;BME280;4926;42.670;23.316;2023-04-10T04:16:52;94590.78;;;7.09;100.00
9774;BME280;4926;42.670;23.316;2023-04-10T04:19:18;94581.78;;;6.90;100.00
9774;BME280;4926;42.670;23.316;2023-04-10T04:21:45;94581.78;;;7.00;100.00
9774;BME280;4926;42.670;23.316;2023-04-10T04:24:12;94584.19;;;7.12;100.00
9774;BME280;4926;42.670;23.316;2023-04-10T04:26:40;94592.94;;;7.17;100.00
9774;BME280;4926;42.670;23.316;2023-04-10T04:29:13;94592.66;;;7.19;100.00
9774;BME280;4926;42.670;23.316;2023-04-10T04:31:42;94595.56;;;7.22;100.00
9774;BME280;4926;42.670;23.316;2023-04-10T04:34:08;94602.44;;;7.33;100.00
9774;BME280;4926;42.670;23.316;2023-04-10T04:36:35;94597.66;;;7.40;100.00
9774;BME280;4926;42.670;23.316;2023-04-10T04:39:04;94599.28;;;7.46;100.00
9774;BME280;4926;42.670;23.316;2023-04-10T04:41:32;94596.88;;;7.50;100.00
9774;BME280;4926;42.670;23.316;2023-04-10T04:44:08;94600.03;;;7.62;100.00
9774;BME280;4926;42.670;23.316;2023-04-10T04:46:35;94607.19;;;7.66;100.00
9774;BME280;4926;42.670;23.316;2023-04-10T04:49:03;94604.28;;;7.68;100.00
9774;BME280;4926;42.670;23.316;2023-04-10T04:51:30;94614.56;;;7.89;99.96
9774;BME280;4926;42.670;23.316;2023-04-10T04:53:57;94606.06;;;7.92;97.82
9774;BME280;4926;42.670;23.316;2023-04-10T04:56:26;94607.16;;;7.91;98.21
9774;BME280;4926;42.670;23.316;2023-04-10T04:58:56;94613.25;;;7.77;98.64
9774;BME280;4926;42.670;23.316;2023-04-10T05:01:23;94621.72;;;7.94;97.28
9774;BME280;4926;42.670;23.316;2023-04-10T05:03:52;94621.97;;;8.03;96.57
9774;BME280;4926;42.670;23.316;2023-04-10T05:06:22;94621.44;;;8.06;96.10
9774;BME280;4926;42.670;23.316;2023-04-10T05:08:49;94621.66;;;8.14;95.89
9774;BME280;4926;42.670;23.316;2023-04-10T05:11:17;94621.38;;;8.26;95.71
9774;BME280;4926;42.670;23.316;2023-04-10T05:13:43;94628.56;;;8.30;94.48
9774;BME280;4926;42.670;23.316;2023-04-10T05:16:13;94620.59;;;8.30;93.89
9774;BME280;4926;42.670;23.316;2023-04-10T05:18:40;94631.47;;;8.19;93.01
9774;BME280;4926;42.670;23.316;2023-04-10T05:21:06;94621.16;;;8.02;92.59
9774;BME280;4926;42.670;23.316;2023-04-10T05:23:35;94623.31;;;7.90;93.91
9774;BME280;4926;42.670;23.316;2023-04-10T05:26:02;94624.09;;;8.01;93.57
9774;BME280;4926;42.670;23.316;2023-04-10T05:28:30;94625.41;;;8.13;93.56
9774;BME280;4926;42.670;23.316;2023-04-10T05:30:57;94621.94;;;8.13;92.95
9774;BME280;4926;42.670;23.316;2023-04-10T05:33:23;94609.75;;;8.12;93.06
9774;BME280;4926;42.670;23.316;2023-04-10T05:35:51;94612.09;;;8.23;89.97
9774;BME280;4926;42.670;23.316;2023-04-10T05:38:18;94627.50;;;8.26;89.35
9774;BME280;4926;42.670;23.316;2023-04-10T05:40:46;94618.69;;;8.41;89.58
9774;BME280;4926;42.670;23.316;2023-04-10T05:43:13;94619.53;;;8.21;89.26
9774;BME280;4926;42.670;23.316;2023-04-10T05:45:45;94623.03;;;8.12;90.23
9774;BME280;4926;42.670;23.316;2023-04-10T05:48:11;94620.88;;;8.09;90.73
9774;BME280;4926;42.670;23.316;2023-04-10T05:50:38;94632.56;;;8.03;90.86
9774;BME280;4926;42.670;23.316;2023-04-10T05:53:05;94624.31;;;8.14;90.16
9774;BME280;4926;42.670;23.316;2023-04-10T05:55:33;94621.88;;;8.43;89.68
9774;BME280;4926;42.670;23.316;2023-04-10T05:58:04;94631.88;;;8.66;89.41
9774;BME280;4926;42.670;23.316;2023-04-10T06:00:31;94629.09;;;8.86;87.11
9774;BME280;4926;42.670;23.316;2023-04-10T06:03:01;94620.56;;;8.89;87.31
9774;BME280;4926;42.670;23.316;2023-04-10T06:05:28;94619.88;;;9.17;86.06
9774;BME280;4926;42.670;23.316;2023-04-10T06:07:54;94618.19;;;9.31;84.65
9774;BME280;4926;42.670;23.316;2023-04-10T06:10:21;94621.75;;;9.50;83.15
9774;BME280;4926;42.670;23.316;2023-04-10T06:12:48;94629.63;;;9.65;82.95
9774;BME280;4926;42.670;23.316;2023-04-10T06:15:16;94622.06;;;9.77;81.79
9774;BME280;4926;42.670;23.316;2023-04-10T06:17:43;94625.97;;;9.56;81.91
9774;BME280;4926;42.670;23.316;2023-04-10T06:20:10;94607.41;;;9.51;82.19
9774;BME280;4926;42.670;23.316;2023-04-10T06:22:37;94620.22;;;9.73;81.96
9774;BME280;4926;42.670;23.316;2023-04-10T06:25:04;94607.06;;;9.91;82.12
9774;BME280;4926;42.670;23.316;2023-04-10T06:27:34;94618.59;;;10.05;82.02
9774;BME280;4926;42.670;23.316;2023-04-10T06:30:01;94615.25;;;10.24;80.87
9774;BME280;4926;42.670;23.316;2023-04-10T06:32:30;94606.78;;;10.22;79.17
9774;BME280;4926;42.670;23.316;2023-04-10T06:34:57;94608.81;;;10.30;78.96
9774;BME280;4926;42.670;23.316;2023-04-10T06:37:27;94611.78;;;10.47;78.95
9774;BME280;4926;42.670;23.316;2023-04-10T06:40:04;94609.97;;;10.19;77.44
9774;BME280;4926;42.670;23.316;2023-04-10T06:42:32;94610.59;;;10.10;77.97
9774;BME280;4926;42.670;23.316;2023-04-10T06:45:01;94615.00;;;10.20;77.01
9774;BME280;4926;42.670;23.316;2023-04-10T06:47:29;94607.88;;;10.16;76.75
9774;BME280;4926;42.670;23.316;2023-04-10T06:49:56;94614.72;;;9.64;77.07
9774;BME280;4926;42.670;23.316;2023-04-10T06:52:23;94626.66;;;9.33;79.17
9774;BME280;4926;42.670;23.316;2023-04-10T06:54:52;94643.34;;;9.00;81.22
9774;BME280;4926;42.670;23.316;2023-04-10T06:57:19;94648.50;;;8.81;82.09
9774;BME280;4926;42.670;23.316;2023-04-10T06:59:45;94648.75;;;8.85;82.54
9774;BME280;4926;42.670;23.316;2023-04-10T07:02:12;94649.16;;;9.07;82.23
9774;BME280;4926;42.670;23.316;2023-04-10T07:04:41;94642.31;;;8.96;82.25
9774;BME280;4926;42.670;23.316;2023-04-10T07:07:07;94646.78;;;9.06;82.63
9774;BME280;4926;42.670;23.316;2023-04-10T07:09:36;94635.25;;;9.25;81.52
9774;BME280;4926;42.670;23.316;2023-04-10T07:12:03;94638.38;;;9.27;80.78
9774;BME280;4926;42.670;23.316;2023-04-10T07:14:31;94630.66;;;9.31;80.74
9774;BME280;4926;42.670;23.316;2023-04-10T07:16:59;94632.69;;;9.44;80.38
9774;BME280;4926;42.670;23.316;2023-04-10T07:19:25;94627.63;;;9.47;79.54
9774;BME280;4926;42.670;23.316;2023-04-10T07:21:55;94630.91;;;9.39;78.88
9774;BME280;4926;42.670;23.316;2023-04-10T07:24:22;94627.75;;;9.32;78.93
9774;BME280;4926;42.670;23.316;2023-04-10T07:26:49;94638.38;;;9.27;79.66
9774;BME280;4926;42.670;23.316;2023-04-10T07:29:15;94646.00;;;9.00;80.61
9774;BME280;4926;42.670;23.316;2023-04-10T07:31:42;94647.09;;;8.94;80.82
9774;BME280;4926;42.670;23.316;2023-04-10T07:34:09;94644.75;;;8.87;80.77
9774;BME280;4926;42.670;23.316;2023-04-10T07:36:36;94649.25;;;8.92;80.93
9774;BME280;4926;42.670;23.316;2023-04-10T07:39:04;94644.84;;;9.16;80.44
9774;BME280;4926;42.670;23.316;2023-04-10T07:41:31;94639.22;;;9.23;79.82
9774;BME280;4926;42.670;23.316;2023-04-10T07:43:58;94646.97;;;9.19;80.53
9774;BME280;4926;42.670;23.316;2023-04-10T07:46:25;94638.88;;;9.39;79.34
9774;BME280;4926;42.670;23.316;2023-04-10T07:48:52;94632.09;;;9.52;78.74
9774;BME280;4926;42.670;23.316;2023-04-10T07:51:19;94636.41;;;9.76;78.41
9774;BME280;4926;42.670;23.316;2023-04-10T07:53:46;94634.53;;;10.10;77.94
9774;BME280;4926;42.670;23.316;2023-04-10T07:56:18;94625.22;;;10.08;76.15
9774;BME280;4926;42.670;23.316;2023-04-10T07:58:47;94621.75;;;10.13;75.55
9774;BME280;4926;42.670;23.316;2023-04-10T08:01:14;94618.06;;;10.08;75.25
9774;BME280;4926;42.670;23.316;2023-04-10T08:03:42;94620.16;;;9.83;75.27
9774;BME280;4926;42.670;23.316;2023-04-10T08:06:10;94622.84;;;9.49;77.29
9774;BME280;4926;42.670;23.316;2023-04-10T08:08:37;94619.13;;;9.79;77.67
9774;BME280;4926;42.670;23.316;2023-04-10T08:11:07;94629.16;;;10.16;76.82
9774;BME280;4926;42.670;23.316;2023-04-10T08:13:35;94634.25;;;10.36;75.97
9774;BME280;4926;42.670;23.316;2023-04-10T08:16:07;94623.84;;;10.16;75.03
9774;BME280;4926;42.670;23.316;2023-04-10T08:18:34;94629.38;;;9.90;76.13
9774;BME280;4926;42.670;23.316;2023-04-10T08:21:00;94631.44;;;9.98;75.77
9774;BME280;4926;42.670;23.316;2023-04-10T08:23:27;94622.66;;;9.98;76.20
9774;BME280;4926;42.670;23.316;2023-04-10T08:25:54;94628.38;;;10.15;76.17
9774;BME280;4926;42.670;23.316;2023-04-10T08:28:20;94627.00;;;10.41;75.49
9774;BME280;4926;42.670;23.316;2023-04-10T08:30:52;94620.34;;;10.44;74.51
9774;BME280;4926;42.670;23.316;2023-04-10T08:33:18;94623.75;;;10.49;74.83
9774;BME280;4926;42.670;23.316;2023-04-10T08:35:46;94616.81;;;10.72;73.65
9774;BME280;4926;42.670;23.316;2023-04-10T08:38:15;94612.00;;;10.74;74.54
9774;BME280;4926;42.670;23.316;2023-04-10T08:40:42;94619.59;;;10.62;73.84
9774;BME280;4926;42.670;23.316;2023-04-10T08:43:13;94610.50;;;10.21;74.47
9774;BME280;4926;42.670;23.316;2023-04-10T08:45:44;94624.97;;;10.09;74.90
9774;BME280;4926;42.670;23.316;2023-04-10T08:48:13;94626.31;;;9.78;75.75
9774;BME280;4926;42.670;23.316;2023-04-10T08:50:44;94628.59;;;9.61;76.66
9774;BME280;4926;42.670;23.316;2023-04-10T08:53:13;94629.63;;;9.65;76.47
9774;BME280;4926;42.670;23.316;2023-04-10T08:55:40;94621.09;;;9.97;76.46
9774;BME280;4926;42.670;23.316;2023-04-10T08:58:07;94623.00;;;10.20;75.47
9774;BME280;4926;42.670;23.316;2023-04-10T09:00:36;94624.00;;;9.95;75.22
9774;BME280;4926;42.670;23.316;2023-04-10T09:03:04;94624.22;;;9.75;76.34
9774;BME280;4926;42.670;23.316;2023-04-10T09:05:34;94618.88;;;9.75;76.08
9774;BME280;4926;42.670;23.316;2023-04-10T09:08:01;94613.56;;;9.75;76.12
9774;BME280;4926;42.670;23.316;2023-04-10T09:10:28;94617.22;;;9.84;75.83
9774;BME280;4926;42.670;23.316;2023-04-10T09:12:55;94620.47;;;9.76;76.71
9774;BME280;4926;42.670;23.316;2023-04-10T09:15:23;94599.91;;;9.87;75.55
9774;BME280;4926;42.670;23.316;2023-04-10T09:17:56;94605.81;;;10.07;74.95
9774;BME280;4926;42.670;23.316;2023-04-10T09:20:29;94593.50;;;10.17;74.14
9774;BME280;4926;42.670;23.316;2023-04-10T09:22:58;94592.13;;;10.43;73.04
9774;BME280;4926;42.670;23.316;2023-04-10T09:25:31;94584.88;;;10.72;71.06
9774;BME280;4926;42.670;23.316;2023-04-10T09:27:59;94576.56;;;10.55;68.66
9774;BME280;4926;42.670;23.316;2023-04-10T09:30:32;94582.50;;;10.47;69.91
9774;BME280;4926;42.670;23.316;2023-04-10T09:33:02;94577.25;;;10.65;69.56
9774;BME280;4926;42.670;23.316;2023-04-10T09:35:57;94574.28;;;10.85;68.87
9774;BME280;4926;42.670;23.316;2023-04-10T09:38:26;94583.81;;;10.91;68.83
9774;BME280;4926;42.670;23.316;2023-04-10T09:41:05;94574.22;;;10.72;67.83
9774;BME280;4926;42.670;23.316;2023-04-10T09:43:32;94580.59;;;10.52;68.73
9774;BME280;4926;42.670;23.316;2023-04-10T09:45:59;94586.56;;;10.44;70.35
9774;BME280;4926;42.670;23.316;2023-04-10T09:48:28;94579.59;;;10.67;69.27
9774;BME280;4926;42.670;23.316;2023-04-10T09:50:55;94573.50;;;10.85;69.37
9774;BME280;4926;42.670;23.316;2023-04-10T09:53:22;94583.66;;;10.41;70.71
9774;BME280;4926;42.670;23.316;2023-04-10T09:55:50;94582.56;;;10.42;71.00
9774;BME280;4926;42.670;23.316;2023-04-10T09:58:19;94582.22;;;10.48;71.54
9774;BME280;4926;42.670;23.316;2023-04-10T10:00:47;94581.91;;;10.73;70.51
9774;BME280;4926;42.670;23.316;2023-04-10T10:03:15;94572.97;;;10.83;68.09
9774;BME280;4926;42.670;23.316;2023-04-10T10:05:45;94560.03;;;10.76;66.23
9774;BME280;4926;42.670;23.316;2023-04-10T10:08:12;94570.97;;;10.33;66.76
9774;BME280;4926;42.670;23.316;2023-04-10T10:10:44;94564.75;;;10.42;66.49
9774;BME280;4926;42.670;23.316;2023-04-10T10:13:15;94547.09;;;10.28;66.96
9774;BME280;4926;42.670;23.316;2023-04-10T10:15:51;94553.31;;;10.42;67.24
9774;BME280;4926;42.670;23.316;2023-04-10T10:18:26;94549.84;;;10.41;66.46
9774;BME280;4926;42.670;23.316;2023-04-10T10:20:56;94547.63;;;10.48;66.31
9774;BME280;4926;42.670;23.316;2023-04-10T10:23:26;94531.63;;;10.72;65.34
9774;BME280;4926;42.670;23.316;2023-04-10T10:25:53;94520.31;;;10.80;64.78
9774;BME280;4926;42.670;23.316;2023-04-10T10:28:23;94533.91;;;10.97;64.37
9774;BME280;4926;42.670;23.316;2023-04-10T10:30:51;94525.56;;;10.85;64.91
9774;BME280;4926;42.670;23.316;2023-04-10T10:33:19;94525.84;;;10.65;64.54
9774;BME280;4926;42.670;23.316;2023-04-10T10:35:49;94531.88;;;10.52;65.55
9774;BME280;4926;42.670;23.316;2023-04-10T10:38:17;94529.81;;;10.49;65.57
9774;BME280;4926;42.670;23.316;2023-04-10T10:40:50;94517.06;;;10.64;65.53
9774;BME280;4926;42.670;23.316;2023-04-10T10:43:26;94513.34;;;10.84;64.54
9774;BME280;4926;42.670;23.316;2023-04-10T10:45:58;94520.75;;;11.05;63.61
9774;BME280;4926;42.670;23.316;2023-04-10T10:48:27;94512.16;;;10.90;64.41
9774;BME280;4926;42.670;23.316;2023-04-10T10:50:58;94505.25;;;10.89;64.38
9774;BME280;4926;42.670;23.316;2023-04-10T10:53:33;94504.59;;;11.15;63.65
9774;BME280;4926;42.670;23.316;2023-04-10T10:58:58;94504.75;;;11.51;63.75
9774;BME280;4926;42.670;23.316;2023-04-10T11:01:26;94487.84;;;11.74;62.19
9774;BME280;4926;42.670;23.316;2023-04-10T11:03:53;94484.63;;;12.04;61.53
9774;BME280;4926;42.670;23.316;2023-04-10T11:06:46;94474.72;;;12.18;60.98
9774;BME280;4926;42.670;23.316;2023-04-10T11:09:49;94458.25;;;12.52;58.69
9774;BME280;4926;42.670;23.316;2023-04-10T11:12:18;94451.38;;;12.95;56.54
9774;BME280;4926;42.670;23.316;2023-04-10T11:14:56;94443.47;;;13.65;55.49
9774;BME280;4926;42.670;23.316;2023-04-10T11:17:49;94408.59;;;14.43;52.64
9774;BME280;4926;42.670;23.316;2023-04-10T11:20:20;94404.03;;;14.35;51.93
9774;BME280;4926;42.670;23.316;2023-04-10T11:23:07;94402.56;;;14.12;51.69
9774;BME280;4926;42.670;23.316;2023-04-10T11:25:46;94400.31;;;13.89;51.47
9774;BME280;4926;42.670;23.316;2023-04-10T11:28:34;94397.47;;;13.85;51.90
9774;BME280;4926;42.670;23.316;2023-04-10T11:31:17;94414.63;;;13.45;53.32
9774;BME280;4926;42.670;23.316;2023-04-10T11:33:46;94409.41;;;13.18;54.00
9774;BME280;4926;42.670;23.316;2023-04-10T11:36:19;94429.94;;;12.65;56.25
9774;BME280;4926;42.670;23.316;2023-04-10T11:38:58;94430.53;;;12.62;56.59
9774;BME280;4926;42.670;23.316;2023-04-10T11:41:26;94425.28;;;12.34;56.55
9774;BME280;4926;42.670;23.316;2023-04-10T11:43:56;94432.03;;;12.18;57.90
9774;BME280;4926;42.670;23.316;2023-04-10T11:46:24;94436.06;;;12.29;58.92
9774;BME280;4926;42.670;23.316;2023-04-10T11:48:52;94437.47;;;12.85;57.88
9774;BME280;4926;42.670;23.316;2023-04-10T11:51:19;94421.75;;;13.05;56.08
9774;BME280;4926;42.670;23.316;2023-04-10T11:53:46;94398.50;;;12.84;54.00
9774;BME280;4926;42.670;23.316;2023-04-10T11:56:17;94406.91;;;12.55;54.90
9774;BME280;4926;42.670;23.316;2023-04-10T11:58:44;94414.22;;;12.27;55.76
9774;BME280;4926;42.670;23.316;2023-04-10T12:01:13;94434.25;;;11.89;57.09
9774;BME280;4926;42.670;23.316;2023-04-10T12:03:42;94428.31;;;11.92;58.03
9774;BME280;4926;42.670;23.316;2023-04-10T12:06:10;94419.59;;;12.14;57.39
9774;BME280;4926;42.670;23.316;2023-04-10T12:08:38;94419.56;;;12.27;56.13
9774;BME280;4926;42.670;23.316;2023-04-10T12:11:06;94418.91;;;11.95;56.16
9774;BME280;4926;42.670;23.316;2023-04-10T12:13:34;94419.47;;;12.05;56.38
9774;BME280;4926;42.670;23.316;2023-04-10T12:16:03;94421.34;;;12.18;55.89
9774;BME280;4926;42.670;23.316;2023-04-10T12:18:31;94419.19;;;12.20;57.30
9774;BME280;4926;42.670;23.316;2023-04-10T12:21:00;94444.69;;;11.99;58.95
9774;BME280;4926;42.670;23.316;2023-04-10T12:23:28;94466.56;;;11.42;65.01
9774;BME280;4926;42.670;23.316;2023-04-10T12:26:13;94491.59;;;10.77;71.30
9774;BME280;4926;42.670;23.316;2023-04-10T12:28:50;94520.50;;;10.28;76.34
9774;BME280;4926;42.670;23.316;2023-04-10T12:31:17;94537.69;;;9.88;82.98
9774;BME280;4926;42.670;23.316;2023-04-10T12:33:45;94539.38;;;9.79;86.07
9774;BME280;4926;42.670;23.316;2023-04-10T12:36:26;94540.94;;;9.56;90.22
9774;BME280;4926;42.670;23.316;2023-04-10T12:38:54;94558.31;;;9.44;96.56
9774;BME280;4926;42.670;23.316;2023-04-10T12:41:22;94555.09;;;9.18;99.49
9774;BME280;4926;42.670;23.316;2023-04-10T12:43:50;94558.16;;;8.96;99.35
9774;BME280;4926;42.670;23.316;2023-04-10T12:46:24;94535.03;;;9.02;98.30
9774;BME280;4926;42.670;23.316;2023-04-10T12:48:51;94531.81;;;9.05;92.32
9774;BME280;4926;42.670;23.316;2023-04-10T12:51:18;94524.78;;;9.19;87.54
9774;BME280;4926;42.670;23.316;2023-04-10T12:53:46;94521.28;;;9.29;85.58
9774;BME280;4926;42.670;23.316;2023-04-10T12:56:13;94510.50;;;9.44;83.19
9774;BME280;4926;42.670;23.316;2023-04-10T12:58:42;94505.22;;;9.67;79.81
9774;BME280;4926;42.670;23.316;2023-04-10T13:01:09;94519.38;;;9.86;80.58
9774;BME280;4926;42.670;23.316;2023-04-10T13:03:39;94513.34;;;9.99;82.35
9774;BME280;4926;42.670;23.316;2023-04-10T13:06:10;94510.94;;;10.27;83.64
9774;BME280;4926;42.670;23.316;2023-04-10T13:08:37;94489.44;;;10.79;82.61
9774;BME280;4926;42.670;23.316;2023-04-10T13:11:06;94494.16;;;11.19;80.39
9774;BME280;4926;42.670;23.316;2023-04-10T13:13:32;94492.16;;;11.57;79.15
9774;BME280;4926;42.670;23.316;2023-04-10T13:16:05;94485.66;;;11.63;77.48
9774;BME280;4926;42.670;23.316;2023-04-10T13:18:37;94471.78;;;12.06;75.20
9774;BME280;4926;42.670;23.316;2023-04-10T13:21:04;94465.03;;;12.94;72.33
9774;BME280;4926;42.670;23.316;2023-04-10T13:23:33;94444.25;;;13.35;67.85
9774;BME280;4926;42.670;23.316;2023-04-10T13:26:00;94420.09;;;13.79;63.37
9774;BME280;4926;42.670;23.316;2023-04-10T13:28:28;94414.44;;;13.81;62.58
9774;BME280;4926;42.670;23.316;2023-04-10T13:30:55;94404.69;;;14.49;61.68